Merom, Indiana
Current Conditions -  °F | °C
As of 10:15 PM on Thursday 27 Nov 2014 (Local Time) from KRSV Reporting Station
Clear Clear  
Wind Chill: 21°   Ceiling: Unl
Heat Index: 21°   Visibility: 10mi
Dew Point: 17°   Wind: 3mph
Humidity: 85%   Direction: 350°N
Pressure: 30.48"   Gusts: NA
Location:  39.06°N, 87.57°W
Report Text: KRSV 280315Z AUTO 35003KT 10SM CLR M06/M08 A3048 RMK AO2 T10611082
Loading
Personal Weather Stations






























Interactive Weather Map New forecast layout! Learn more

10-Day Weather Forecast

Advertisements
Track Severe Weather on mobile